sensor_id;sensor_type;location;lat;lon;timestamp;pressure;altitude;pressure_sealevel;temperature;humidity
46642;BME280;32370;41.864;-88.124;2023-04-24T00:02:26;99281.71;;;1.85;59.02
46642;BME280;32370;41.864;-88.124;2023-04-24T00:04:54;99284.71;;;1.98;58.37
46642;BME280;32370;41.864;-88.124;2023-04-24T00:07:22;99287.49;;;2.34;58.01
46642;BME280;32370;41.864;-88.124;2023-04-24T00:09:50;99283.53;;;1.86;59.38
46642;BME280;32370;41.864;-88.124;2023-04-24T00:12:18;99286.24;;;2.28;57.87
46642;BME280;32370;41.864;-88.124;2023-04-24T00:14:47;99289.04;;;2.18;57.52
46642;BME280;32370;41.864;-88.124;2023-04-24T00:17:16;99291.31;;;1.76;56.49
46642;BME280;32370;41.864;-88.124;2023-04-24T00:19:44;99293.22;;;1.95;57.61
46642;BME280;32370;41.864;-88.124;2023-04-24T00:22:12;99299.10;;;2.15;57.58
46642;BME280;32370;41.864;-88.124;2023-04-24T00:24:40;99297.19;;;1.86;57.20
46642;BME280;32370;41.864;-88.124;2023-04-24T00:27:08;99297.48;;;1.74;58.13
46642;BME280;32370;41.864;-88.124;2023-04-24T00:29:36;99295.82;;;1.84;56.66
46642;BME280;32370;41.864;-88.124;2023-04-24T00:32:04;99296.95;;;1.75;57.47
46642;BME280;32370;41.864;-88.124;2023-04-24T00:34:32;99298.58;;;1.74;57.42
46642;BME280;32370;41.864;-88.124;2023-04-24T00:37:00;99299.37;;;1.71;56.86
46642;BME280;32370;41.864;-88.124;2023-04-24T00:39:28;99304.56;;;1.60;58.20
46642;BME280;32370;41.864;-88.124;2023-04-24T00:41:56;99304.06;;;1.67;58.46
46642;BME280;32370;41.864;-88.124;2023-04-24T00:44:24;99305.46;;;1.66;57.79
46642;BME280;32370;41.864;-88.124;2023-04-24T00:46:52;99303.77;;;1.39;58.86
46642;BME280;32370;41.864;-88.124;2023-04-24T00:49:20;99305.75;;;1.29;59.68
46642;BME280;32370;41.864;-88.124;2023-04-24T00:51:49;99310.68;;;1.81;59.71
46642;BME280;32370;41.864;-88.124;2023-04-24T00:54:17;99312.26;;;1.51;58.98
46642;BME280;32370;41.864;-88.124;2023-04-24T00:56:45;99314.83;;;1.86;58.19
46642;BME280;32370;41.864;-88.124;2023-04-24T00:59:14;99315.84;;;2.09;57.61
46642;BME280;32370;41.864;-88.124;2023-04-24T01:01:43;99313.82;;;2.12;56.79
46642;BME280;32370;41.864;-88.124;2023-04-24T01:04:12;99316.80;;;2.23;55.93
46642;BME280;32370;41.864;-88.124;2023-04-24T01:06:41;99319.99;;;1.88;57.71
46642;BME280;32370;41.864;-88.124;2023-04-24T01:09:11;99327.18;;;2.10;57.36
46642;BME280;32370;41.864;-88.124;2023-04-24T01:11:42;99332.46;;;1.64;58.64
46642;BME280;32370;41.864;-88.124;2023-04-24T01:14:10;99335.79;;;1.80;58.43
46642;BME280;32370;41.864;-88.124;2023-04-24T01:16:39;99328.93;;;1.83;59.30
46642;BME280;32370;41.864;-88.124;2023-04-24T01:19:08;99334.17;;;1.70;58.64
46642;BME280;32370;41.864;-88.124;2023-04-24T01:21:38;99335.57;;;1.54;59.48
46642;BME280;32370;41.864;-88.124;2023-04-24T01:24:06;99340.36;;;1.46;59.60
46642;BME280;32370;41.864;-88.124;2023-04-24T01:26:34;99344.00;;;1.50;59.37
46642;BME280;32370;41.864;-88.124;2023-04-24T01:29:02;99343.75;;;1.31;59.25
46642;BME280;32370;41.864;-88.124;2023-04-24T01:31:30;99346.84;;;1.81;60.27
46642;BME280;32370;41.864;-88.124;2023-04-24T01:33:59;99342.57;;;2.03;60.44
46642;BME280;32370;41.864;-88.124;2023-04-24T01:36:27;99340.07;;;2.05;60.33
46642;BME280;32370;41.864;-88.124;2023-04-24T01:38:56;99343.66;;;2.72;59.65
46642;BME280;32370;41.864;-88.124;2023-04-24T01:41:25;99347.20;;;2.10;58.67
46642;BME280;32370;41.864;-88.124;2023-04-24T01:43:54;99350.10;;;2.20;58.30
46642;BME280;32370;41.864;-88.124;2023-04-24T01:46:22;99347.57;;;2.38;58.71
46642;BME280;32370;41.864;-88.124;2023-04-24T01:48:51;99346.16;;;2.10;58.33
46642;BME280;32370;41.864;-88.124;2023-04-24T01:51:20;99349.87;;;2.27;58.33
46642;BME280;32370;41.864;-88.124;2023-04-24T01:53:48;99351.15;;;2.24;56.69
46642;BME280;32370;41.864;-88.124;2023-04-24T01:56:17;99356.03;;;2.40;57.18
46642;BME280;32370;41.864;-88.124;2023-04-24T01:58:45;99358.69;;;2.55;57.40
46642;BME280;32370;41.864;-88.124;2023-04-24T02:01:17;99360.93;;;2.49;57.46
46642;BME280;32370;41.864;-88.124;2023-04-24T02:03:46;99360.56;;;2.50;58.21
46642;BME280;32370;41.864;-88.124;2023-04-24T02:06:13;99364.65;;;1.76;58.88
46642;BME280;32370;41.864;-88.124;2023-04-24T02:08:42;99363.99;;;2.71;57.96
46642;BME280;32370;41.864;-88.124;2023-04-24T02:11:10;99363.94;;;2.04;59.16
46642;BME280;32370;41.864;-88.124;2023-04-24T02:13:38;99363.17;;;2.11;58.87
46642;BME280;32370;41.864;-88.124;2023-04-24T02:16:07;99366.87;;;2.28;58.47
46642;BME280;32370;41.864;-88.124;2023-04-24T02:18:36;99365.69;;;2.17;58.45
46642;BME280;32370;41.864;-88.124;2023-04-24T02:21:04;99369.41;;;2.63;58.05
46642;BME280;32370;41.864;-88.124;2023-04-24T02:23:32;99368.00;;;2.26;58.87
46642;BME280;32370;41.864;-88.124;2023-04-24T02:26:00;99368.05;;;2.25;58.52
46642;BME280;32370;41.864;-88.124;2023-04-24T02:28:28;99369.44;;;2.34;58.41
46642;BME280;32370;41.864;-88.124;2023-04-24T02:30:56;99368.58;;;2.24;58.13
46642;BME280;32370;41.864;-88.124;2023-04-24T02:33:24;99369.00;;;2.65;58.29
46642;BME280;32370;41.864;-88.124;2023-04-24T02:35:52;99369.37;;;2.53;58.24
46642;BME280;32370;41.864;-88.124;2023-04-24T02:38:20;99367.79;;;2.53;58.30
46642;BME280;32370;41.864;-88.124;2023-04-24T02:40:48;99364.91;;;2.37;58.90
46642;BME280;32370;41.864;-88.124;2023-04-24T02:43:15;99362.64;;;2.70;58.65
46642;BME280;32370;41.864;-88.124;2023-04-24T02:45:43;99359.93;;;2.96;58.24
46642;BME280;32370;41.864;-88.124;2023-04-24T02:48:11;99367.28;;;2.76;58.18
46642;BME280;32370;41.864;-88.124;2023-04-24T02:50:39;99365.87;;;3.12;57.56
46642;BME280;32370;41.864;-88.124;2023-04-24T02:53:08;99367.02;;;2.51;57.40
46642;BME280;32370;41.864;-88.124;2023-04-24T02:55:35;99367.31;;;2.77;57.32
46642;BME280;32370;41.864;-88.124;2023-04-24T02:58:03;99366.78;;;2.55;58.19
46642;BME280;32370;41.864;-88.124;2023-04-24T03:00:32;99368.70;;;2.61;58.13
46642;BME280;32370;41.864;-88.124;2023-04-24T03:02:59;99370.49;;;2.05;58.33
46642;BME280;32370;41.864;-88.124;2023-04-24T03:05:27;99369.40;;;2.16;58.63
46642;BME280;32370;41.864;-88.124;2023-04-24T03:07:55;99369.02;;;2.35;58.52
46642;BME280;32370;41.864;-88.124;2023-04-24T03:10:23;99368.06;;;2.05;58.82
46642;BME280;32370;41.864;-88.124;2023-04-24T03:12:51;99365.52;;;2.28;58.96
46642;BME280;32370;41.864;-88.124;2023-04-24T03:15:19;99362.96;;;2.32;59.05
46642;BME280;32370;41.864;-88.124;2023-04-24T03:17:47;99362.27;;;2.25;59.39
46642;BME280;32370;41.864;-88.124;2023-04-24T03:20:16;99365.53;;;2.52;58.89
46642;BME280;32370;41.864;-88.124;2023-04-24T03:22:45;99363.07;;;2.71;58.62
46642;BME280;32370;41.864;-88.124;2023-04-24T03:25:13;99361.49;;;2.30;59.15
46642;BME280;32370;41.864;-88.124;2023-04-24T03:27:41;99361.41;;;2.26;59.27
46642;BME280;32370;41.864;-88.124;2023-04-24T03:30:09;99361.46;;;2.35;59.55
46642;BME280;32370;41.864;-88.124;2023-04-24T03:32:38;99355.17;;;2.07;59.75
46642;BME280;32370;41.864;-88.124;2023-04-24T03:35:06;99354.51;;;2.16;59.72
46642;BME280;32370;41.864;-88.124;2023-04-24T03:37:34;99353.12;;;1.98;60.64
46642;BME280;32370;41.864;-88.124;2023-04-24T03:40:03;99352.89;;;2.05;60.42
46642;BME280;32370;41.864;-88.124;2023-04-24T03:42:30;99353.70;;;2.15;60.37
46642;BME280;32370;41.864;-88.124;2023-04-24T03:44:58;99350.43;;;2.10;60.52
46642;BME280;32370;41.864;-88.124;2023-04-24T03:47:26;99347.90;;;2.01;61.01
46642;BME280;32370;41.864;-88.124;2023-04-24T03:49:54;99348.47;;;1.96;61.30
46642;BME280;32370;41.864;-88.124;2023-04-24T03:52:22;99350.87;;;1.62;61.43
46642;BME280;32370;41.864;-88.124;2023-04-24T03:54:50;99348.26;;;1.58;61.61
46642;BME280;32370;41.864;-88.124;2023-04-24T03:57:19;99346.70;;;1.78;61.15
46642;BME280;32370;41.864;-88.124;2023-04-24T03:59:46;99340.64;;;1.95;60.83
46642;BME280;32370;41.864;-88.124;2023-04-24T04:02:14;99340.96;;;1.93;60.81
46642;BME280;32370;41.864;-88.124;2023-04-24T04:04:42;99343.26;;;1.61;61.89
46642;BME280;32370;41.864;-88.124;2023-04-24T04:07:10;99342.79;;;1.47;62.19
46642;BME280;32370;41.864;-88.124;2023-04-24T04:09:38;99341.62;;;1.77;61.55
46642;BME280;32370;41.864;-88.124;2023-04-24T04:12:06;99342.55;;;1.69;61.98
46642;BME280;32370;41.864;-88.124;2023-04-24T04:14:34;99343.37;;;2.30;61.60
46642;BME280;32370;41.864;-88.124;2023-04-24T04:17:02;99340.25;;;1.83;61.60
46642;BME280;32370;41.864;-88.124;2023-04-24T04:19:30;99341.62;;;2.30;61.16
46642;BME280;32370;41.864;-88.124;2023-04-24T04:21:58;99342.51;;;1.72;61.68
46642;BME280;32370;41.864;-88.124;2023-04-24T04:24:28;99343.54;;;2.04;61.73
46642;BME280;32370;41.864;-88.124;2023-04-24T04:26:56;99342.33;;;1.87;62.06
46642;BME280;32370;41.864;-88.124;2023-04-24T04:29:24;99345.14;;;1.88;61.96
46642;BME280;32370;41.864;-88.124;2023-04-24T04:31:52;99347.15;;;2.00;61.80
46642;BME280;32370;41.864;-88.124;2023-04-24T04:34:20;99348.43;;;1.99;61.86
46642;BME280;32370;41.864;-88.124;2023-04-24T04:36:48;99348.69;;;2.07;61.88
46642;BME280;32370;41.864;-88.124;2023-04-24T04:39:16;99348.90;;;2.17;61.76
46642;BME280;32370;41.864;-88.124;2023-04-24T04:41:44;99345.88;;;2.16;61.74
46642;BME280;32370;41.864;-88.124;2023-04-24T04:44:12;99349.48;;;2.24;61.46
46642;BME280;32370;41.864;-88.124;2023-04-24T04:46:40;99346.17;;;2.10;61.64
46642;BME280;32370;41.864;-88.124;2023-04-24T04:49:08;99343.29;;;2.06;61.69
46642;BME280;32370;41.864;-88.124;2023-04-24T04:51:36;99339.55;;;1.83;61.57
46642;BME280;32370;41.864;-88.124;2023-04-24T04:54:04;99342.00;;;2.07;61.44
46642;BME280;32370;41.864;-88.124;2023-04-24T04:56:31;99341.18;;;2.05;61.33
46642;BME280;32370;41.864;-88.124;2023-04-24T04:58:59;99339.47;;;2.08;61.04
46642;BME280;32370;41.864;-88.124;2023-04-24T05:01:27;99338.37;;;1.83;61.31
46642;BME280;32370;41.864;-88.124;2023-04-24T05:03:55;99339.83;;;1.84;61.30
46642;BME280;32370;41.864;-88.124;2023-04-24T05:06:23;99341.04;;;1.69;61.34
46642;BME280;32370;41.864;-88.124;2023-04-24T05:08:51;99338.28;;;1.63;61.46
46642;BME280;32370;41.864;-88.124;2023-04-24T05:11:19;99339.20;;;1.41;61.45
46642;BME280;32370;41.864;-88.124;2023-04-24T05:13:47;99337.75;;;1.34;61.56
46642;BME280;32370;41.864;-88.124;2023-04-24T05:16:15;99335.61;;;1.41;61.71
46642;BME280;32370;41.864;-88.124;2023-04-24T05:18:43;99336.25;;;1.52;61.98
46642;BME280;32370;41.864;-88.124;2023-04-24T05:21:11;99339.52;;;1.57;61.88
46642;BME280;32370;41.864;-88.124;2023-04-24T05:23:40;99341.79;;;0.93;63.02
46642;BME280;32370;41.864;-88.124;2023-04-24T05:26:08;99338.37;;;1.70;62.00
46642;BME280;32370;41.864;-88.124;2023-04-24T05:28:36;99339.77;;;1.38;62.59
46642;BME280;32370;41.864;-88.124;2023-04-24T05:31:04;99342.09;;;1.05;62.58
46642;BME280;32370;41.864;-88.124;2023-04-24T05:33:32;99342.12;;;1.36;62.50
46642;BME280;32370;41.864;-88.124;2023-04-24T05:36:00;99340.48;;;1.52;61.69
46642;BME280;32370;41.864;-88.124;2023-04-24T05:38:28;99338.20;;;1.68;61.84
46642;BME280;32370;41.864;-88.124;2023-04-24T05:40:56;99340.53;;;1.55;62.17
46642;BME280;32370;41.864;-88.124;2023-04-24T05:43:24;99340.33;;;1.14;62.56
46642;BME280;32370;41.864;-88.124;2023-04-24T05:45:52;99337.61;;;1.18;62.82
46642;BME280;32370;41.864;-88.124;2023-04-24T05:48:20;99340.24;;;1.10;63.04
46642;BME280;32370;41.864;-88.124;2023-04-24T05:50:48;99339.65;;;1.16;63.99
46642;BME280;32370;41.864;-88.124;2023-04-24T05:53:16;99337.61;;;1.19;63.38
46642;BME280;32370;41.864;-88.124;2023-04-24T05:55:44;99339.82;;;0.97;64.93
46642;BME280;32370;41.864;-88.124;2023-04-24T05:58:13;99345.72;;;1.27;65.00
46642;BME280;32370;41.864;-88.124;2023-04-24T06:00:42;99344.43;;;1.15;64.51
46642;BME280;32370;41.864;-88.124;2023-04-24T06:03:09;99342.05;;;1.57;64.23
46642;BME280;32370;41.864;-88.124;2023-04-24T06:05:37;99344.44;;;1.52;64.66
46642;BME280;32370;41.864;-88.124;2023-04-24T06:08:06;99344.08;;;1.43;64.35
46642;BME280;32370;41.864;-88.124;2023-04-24T06:10:33;99344.62;;;1.04;64.00
46642;BME280;32370;41.864;-88.124;2023-04-24T06:13:01;99344.11;;;0.87;64.93
46642;BME280;32370;41.864;-88.124;2023-04-24T06:15:30;99339.72;;;1.19;64.73
46642;BME280;32370;41.864;-88.124;2023-04-24T06:17:58;99337.76;;;1.67;64.51
46642;BME280;32370;41.864;-88.124;2023-04-24T06:20:26;99341.21;;;1.84;64.52
46642;BME280;32370;41.864;-88.124;2023-04-24T06:22:54;99338.47;;;1.53;64.86
46642;BME280;32370;41.864;-88.124;2023-04-24T06:25:24;99342.49;;;1.27;65.72
46642;BME280;32370;41.864;-88.124;2023-04-24T06:27:53;99339.99;;;1.47;65.35
46642;BME280;32370;41.864;-88.124;2023-04-24T06:30:22;99344.59;;;1.49;65.05
46642;BME280;32370;41.864;-88.124;2023-04-24T06:32:51;99343.93;;;1.52;64.84
46642;BME280;32370;41.864;-88.124;2023-04-24T06:35:19;99344.21;;;1.54;64.62
46642;BME280;32370;41.864;-88.124;2023-04-24T06:37:47;99343.38;;;2.02;64.19
46642;BME280;32370;41.864;-88.124;2023-04-24T06:40:15;99341.52;;;1.01;65.05
46642;BME280;32370;41.864;-88.124;2023-04-24T06:42:43;99342.04;;;1.05;66.12
46642;BME280;32370;41.864;-88.124;2023-04-24T06:45:11;99336.53;;;0.76;67.00
46642;BME280;32370;41.864;-88.124;2023-04-24T06:47:39;99337.49;;;1.29;66.34
46642;BME280;32370;41.864;-88.124;2023-04-24T06:50:08;99334.93;;;1.40;65.88
46642;BME280;32370;41.864;-88.124;2023-04-24T06:52:36;99336.64;;;1.12;65.85
46642;BME280;32370;41.864;-88.124;2023-04-24T06:55:05;99330.05;;;1.32;65.47
46642;BME280;32370;41.864;-88.124;2023-04-24T06:57:33;99329.22;;;1.56;65.53
46642;BME280;32370;41.864;-88.124;2023-04-24T07:00:01;99329.57;;;1.18;65.44
46642;BME280;32370;41.864;-88.124;2023-04-24T07:02:29;99327.64;;;1.61;65.12
46642;BME280;32370;41.864;-88.124;2023-04-24T07:04:57;99326.08;;;1.55;65.31
46642;BME280;32370;41.864;-88.124;2023-04-24T07:07:25;99331.06;;;0.85;65.98
46642;BME280;32370;41.864;-88.124;2023-04-24T07:09:53;99324.71;;;1.08;66.22
46642;BME280;32370;41.864;-88.124;2023-04-24T07:12:21;99321.70;;;1.14;67.42
46642;BME280;32370;41.864;-88.124;2023-04-24T07:14:49;99322.88;;;1.13;66.80
46642;BME280;32370;41.864;-88.124;2023-04-24T07:17:17;99315.50;;;1.36;66.60
46642;BME280;32370;41.864;-88.124;2023-04-24T07:19:45;99315.77;;;1.17;66.26
46642;BME280;32370;41.864;-88.124;2023-04-24T07:22:13;99313.97;;;1.30;65.87
46642;BME280;32370;41.864;-88.124;2023-04-24T07:24:41;99310.99;;;1.54;65.49
46642;BME280;32370;41.864;-88.124;2023-04-24T07:27:10;99307.91;;;1.35;65.44
46642;BME280;32370;41.864;-88.124;2023-04-24T07:29:38;99312.50;;;1.44;64.67
46642;BME280;32370;41.864;-88.124;2023-04-24T07:32:06;99308.50;;;1.52;64.97
46642;BME280;32370;41.864;-88.124;2023-04-24T07:34:34;99315.37;;;1.72;64.89
46642;BME280;32370;41.864;-88.124;2023-04-24T07:37:02;99315.01;;;1.32;65.62
46642;BME280;32370;41.864;-88.124;2023-04-24T07:39:30;99316.79;;;1.32;65.48
46642;BME280;32370;41.864;-88.124;2023-04-24T07:41:58;99315.24;;;1.87;64.67
46642;BME280;32370;41.864;-88.124;2023-04-24T07:44:26;99315.94;;;1.70;64.68
46642;BME280;32370;41.864;-88.124;2023-04-24T07:46:54;99315.12;;;1.77;64.18
46642;BME280;32370;41.864;-88.124;2023-04-24T07:49:23;99312.89;;;1.56;64.03
46642;BME280;32370;41.864;-88.124;2023-04-24T07:51:51;99313.27;;;1.41;63.70
46642;BME280;32370;41.864;-88.124;2023-04-24T07:54:19;99322.30;;;0.30;66.15
46642;BME280;32370;41.864;-88.124;2023-04-24T07:56:47;99316.31;;;0.53;65.69
46642;BME280;32370;41.864;-88.124;2023-04-24T07:59:15;99316.01;;;0.78;65.09
46642;BME280;32370;41.864;-88.124;2023-04-24T08:01:43;99316.09;;;0.72;64.44
46642;BME280;32370;41.864;-88.124;2023-04-24T08:04:11;99312.43;;;0.34;64.27
46642;BME280;32370;41.864;-88.124;2023-04-24T08:06:39;99311.41;;;0.22;64.34
46642;BME280;32370;41.864;-88.124;2023-04-24T08:09:07;99309.14;;;0.28;64.11
46642;BME280;32370;41.864;-88.124;2023-04-24T08:11:35;99310.35;;;-0.53;65.10
46642;BME280;32370;41.864;-88.124;2023-04-24T08:14:03;99308.46;;;0.06;66.61
46642;BME280;32370;41.864;-88.124;2023-04-24T08:16:32;99310.67;;;-0.04;66.03
46642;BME280;32370;41.864;-88.124;2023-04-24T08:19:01;99312.05;;;-0.29;66.05
46642;BME280;32370;41.864;-88.124;2023-04-24T08:21:29;99317.32;;;0.26;65.94
46642;BME280;32370;41.864;-88.124;2023-04-24T08:23:57;99322.42;;;-0.24;65.89
46642;BME280;32370;41.864;-88.124;2023-04-24T08:26:25;99322.50;;;-0.49;65.77
46642;BME280;32370;41.864;-88.124;2023-04-24T08:28:53;99321.55;;;-0.09;65.55
46642;BME280;32370;41.864;-88.124;2023-04-24T08:31:22;99317.40;;;0.01;65.09
46642;BME280;32370;41.864;-88.124;2023-04-24T08:33:49;99316.69;;;0.60;64.61
46642;BME280;32370;41.864;-88.124;2023-04-24T08:36:18;99318.52;;;0.06;65.00
46642;BME280;32370;41.864;-88.124;2023-04-24T08:38:46;99316.48;;;-0.42;65.68
46642;BME280;32370;41.864;-88.124;2023-04-24T08:41:14;99315.98;;;-0.32;65.96
46642;BME280;32370;41.864;-88.124;2023-04-24T08:43:43;99320.96;;;-0.46;65.52
46642;BME280;32370;41.864;-88.124;2023-04-24T08:46:13;99324.33;;;-0.41;65.87
46642;BME280;32370;41.864;-88.124;2023-04-24T08:48:43;99325.94;;;-0.04;65.50
46642;BME280;32370;41.864;-88.124;2023-04-24T08:51:11;99328.96;;;-0.28;66.02
46642;BME280;32370;41.864;-88.124;2023-04-24T08:53:39;99328.84;;;-0.39;66.13
46642;BME280;32370;41.864;-88.124;2023-04-24T08:56:07;99328.07;;;-0.40;66.23
46642;BME280;32370;41.864;-88.124;2023-04-24T08:58:36;99329.31;;;-0.57;65.56
46642;BME280;32370;41.864;-88.124;2023-04-24T09:01:05;99328.82;;;-0.40;65.45
46642;BME280;32370;41.864;-88.124;2023-04-24T09:03:33;99332.52;;;-0.19;65.36
46642;BME280;32370;41.864;-88.124;2023-04-24T09:06:03;99333.28;;;-0.77;66.46
46642;BME280;32370;41.864;-88.124;2023-04-24T09:08:32;99336.27;;;-0.96;67.19
46642;BME280;32370;41.864;-88.124;2023-04-24T09:11:00;99337.71;;;-0.83;66.92
46642;BME280;32370;41.864;-88.124;2023-04-24T09:13:29;99335.66;;;-1.10;67.06
46642;BME280;32370;41.864;-88.124;2023-04-24T09:15:57;99336.78;;;-1.27;67.96
46642;BME280;32370;41.864;-88.124;2023-04-24T09:18:26;99337.83;;;-0.93;67.91
46642;BME280;32370;41.864;-88.124;2023-04-24T09:21:03;99342.54;;;-1.30;67.75
46642;BME280;32370;41.864;-88.124;2023-04-24T09:23:32;99343.38;;;-1.09;67.53
46642;BME280;32370;41.864;-88.124;2023-04-24T09:26:01;99345.86;;;-0.86;67.46
46642;BME280;32370;41.864;-88.124;2023-04-24T09:28:31;99350.34;;;-0.82;66.72
46642;BME280;32370;41.864;-88.124;2023-04-24T09:31:04;99349.20;;;-0.79;66.46
46642;BME280;32370;41.864;-88.124;2023-04-24T09:33:33;99351.38;;;-0.84;67.08
46642;BME280;32370;41.864;-88.124;2023-04-24T09:36:01;99352.57;;;-0.95;67.81
46642;BME280;32370;41.864;-88.124;2023-04-24T09:38:33;99353.05;;;-1.44;69.13
46642;BME280;32370;41.864;-88.124;2023-04-24T09:41:02;99357.24;;;-1.14;69.08
46642;BME280;32370;41.864;-88.124;2023-04-24T09:43:30;99361.36;;;-1.27;70.31
46642;BME280;32370;41.864;-88.124;2023-04-24T09:46:00;99361.82;;;-1.32;71.12
46642;BME280;32370;41.864;-88.124;2023-04-24T09:48:32;99362.96;;;-1.20;71.11
46642;BME280;32370;41.864;-88.124;2023-04-24T09:51:01;99361.95;;;-1.23;71.70
46642;BME280;32370;41.864;-88.124;2023-04-24T09:53:31;99363.25;;;-0.79;71.14
46642;BME280;32370;41.864;-88.124;2023-04-24T09:56:06;99363.56;;;-0.76;70.34
46642;BME280;32370;41.864;-88.124;2023-04-24T09:58:37;99364.98;;;-0.66;70.34
46642;BME280;32370;41.864;-88.124;2023-04-24T10:01:05;99365.14;;;-0.67;70.60
46642;BME280;32370;41.864;-88.124;2023-04-24T10:03:34;99365.10;;;-0.98;72.61
46642;BME280;32370;41.864;-88.124;2023-04-24T10:06:02;99372.08;;;-1.20;73.66
46642;BME280;32370;41.864;-88.124;2023-04-24T10:08:34;99368.78;;;-1.40;73.91
46642;BME280;32370;41.864;-88.124;2023-04-24T10:11:02;99366.31;;;-1.18;73.46
46642;BME280;32370;41.864;-88.124;2023-04-24T10:13:31;99369.27;;;-0.89;72.67
46642;BME280;32370;41.864;-88.124;2023-04-24T10:16:01;99371.51;;;-0.74;72.29
46642;BME280;32370;41.864;-88.124;2023-04-24T10:18:31;99369.20;;;-0.35;71.37
46642;BME280;32370;41.864;-88.124;2023-04-24T10:21:00;99372.87;;;-0.65;70.96
46642;BME280;32370;41.864;-88.124;2023-04-24T10:23:29;99371.65;;;-0.28;70.91
46642;BME280;32370;41.864;-88.124;2023-04-24T10:25:58;99372.33;;;-0.25;70.85
46642;BME280;32370;41.864;-88.124;2023-04-24T10:28:28;99375.62;;;-0.47;70.79
46642;BME280;32370;41.864;-88.124;2023-04-24T10:30:57;99376.95;;;-0.39;70.48
46642;BME280;32370;41.864;-88.124;2023-04-24T10:33:26;99378.67;;;-0.43;70.40
46642;BME280;32370;41.864;-88.124;2023-04-24T10:35:56;99377.59;;;-0.22;70.71
46642;BME280;32370;41.864;-88.124;2023-04-24T10:38:26;99377.47;;;-0.40;70.77
46642;BME280;32370;41.864;-88.124;2023-04-24T10:41:07;99380.56;;;-0.15;70.28
46642;BME280;32370;41.864;-88.124;2023-04-24T10:43:35;99381.82;;;-0.67;70.30
46642;BME280;32370;41.864;-88.124;2023-04-24T10:46:04;99386.73;;;-0.56;70.42
46642;BME280;32370;41.864;-88.124;2023-04-24T10:48:34;99391.00;;;-0.41;70.57
46642;BME280;32370;41.864;-88.124;2023-04-24T10:51:02;99391.51;;;-0.35;69.96
46642;BME280;32370;41.864;-88.124;2023-04-24T10:53:31;99393.10;;;0.04;69.70
46642;BME280;32370;41.864;-88.124;2023-04-24T10:56:04;99401.42;;;-0.51;69.48
46642;BME280;32370;41.864;-88.124;2023-04-24T10:58:39;99401.80;;;-0.37;69.64
46642;BME280;32370;41.864;-88.124;2023-04-24T11:01:07;99406.15;;;0.20;68.60
46642;BME280;32370;41.864;-88.124;2023-04-24T11:03:35;99410.71;;;-0.07;68.74
46642;BME280;32370;41.864;-88.124;2023-04-24T11:06:05;99413.28;;;-0.21;68.74
46642;BME280;32370;41.864;-88.124;2023-04-24T11:08:39;99416.78;;;-0.25;69.29
46642;BME280;32370;41.864;-88.124;2023-04-24T11:11:12;99417.05;;;0.06;67.86
46642;BME280;32370;41.864;-88.124;2023-04-24T11:14:15;99422.73;;;1.22;68.08
46642;BME280;32370;41.864;-88.124;2023-04-24T11:16:44;99423.37;;;0.19;68.21
46642;BME280;32370;41.864;-88.124;2023-04-24T11:19:22;99429.92;;;0.36;67.96
46642;BME280;32370;41.864;-88.124;2023-04-24T11:21:57;99425.96;;;0.61;67.93
46642;BME280;32370;41.864;-88.124;2023-04-24T11:24:28;99428.24;;;0.40;67.61
46642;BME280;32370;41.864;-88.124;2023-04-24T11:26:59;99433.78;;;0.54;67.31
46642;BME280;32370;41.864;-88.124;2023-04-24T11:29:44;99433.27;;;0.09;67.36
46642;BME280;32370;41.864;-88.124;2023-04-24T11:32:17;99437.14;;;0.01;67.17
46642;BME280;32370;41.864;-88.124;2023-04-24T11:34:47;99441.89;;;-0.48;67.78
46642;BME280;32370;41.864;-88.124;2023-04-24T11:37:17;99445.12;;;-0.07;66.20
46642;BME280;32370;41.864;-88.124;2023-04-24T11:39:45;99445.31;;;-0.57;67.71
46642;BME280;32370;41.864;-88.124;2023-04-24T11:42:15;99451.44;;;0.26;66.81
46642;BME280;32370;41.864;-88.124;2023-04-24T11:44:43;99451.62;;;0.77;66.50
46642;BME280;32370;41.864;-88.124;2023-04-24T11:47:11;99457.93;;;-0.02;66.95
46642;BME280;32370;41.864;-88.124;2023-04-24T11:49:39;99460.44;;;-0.08;67.16
46642;BME280;32370;41.864;-88.124;2023-04-24T11:52:07;99456.70;;;0.21;66.93
46642;BME280;32370;41.864;-88.124;2023-04-24T11:54:35;99460.12;;;0.57;66.69
46642;BME280;32370;41.864;-88.124;2023-04-24T11:57:05;99464.68;;;0.28;66.83
46642;BME280;32370;41.864;-88.124;2023-04-24T11:59:36;99463.90;;;0.39;67.66
46642;BME280;32370;41.864;-88.124;2023-04-24T12:02:05;99470.54;;;0.80;66.79
46642;BME280;32370;41.864;-88.124;2023-04-24T12:04:39;99468.07;;;1.28;66.42
46642;BME280;32370;41.864;-88.124;2023-04-24T12:07:07;99472.46;;;0.98;66.23
46642;BME280;32370;41.864;-88.124;2023-04-24T12:09:44;99474.79;;;1.38;65.79
46642;BME280;32370;41.864;-88.124;2023-04-24T12:12:14;99479.97;;;0.47;64.97
46642;BME280;32370;41.864;-88.124;2023-04-24T12:14:46;99483.06;;;-0.09;67.24
46642;BME280;32370;41.864;-88.124;2023-04-24T12:17:15;99477.27;;;0.64;66.81
46642;BME280;32370;41.864;-88.124;2023-04-24T12:20:07;99475.83;;;1.18;68.19
46642;BME280;32370;41.864;-88.124;2023-04-24T12:22:52;99479.55;;;0.57;65.94
46642;BME280;32370;41.864;-88.124;2023-04-24T12:25:22;99485.50;;;0.95;65.74
46642;BME280;32370;41.864;-88.124;2023-04-24T12:27:54;99487.22;;;1.37;65.00
46642;BME280;32370;41.864;-88.124;2023-04-24T12:30:27;99488.21;;;1.67;64.13
46642;BME280;32370;41.864;-88.124;2023-04-24T12:32:56;99487.62;;;2.29;66.06
46642;BME280;32370;41.864;-88.124;2023-04-24T12:35:28;99496.60;;;2.01;62.67
46642;BME280;32370;41.864;-88.124;2023-04-24T12:37:59;99494.48;;;2.37;62.12
46642;BME280;32370;41.864;-88.124;2023-04-24T12:40:33;99497.98;;;1.94;61.61
46642;BME280;32370;41.864;-88.124;2023-04-24T12:43:01;99492.87;;;2.47;63.93
46642;BME280;32370;41.864;-88.124;2023-04-24T12:45:29;99494.54;;;2.47;60.10
46642;BME280;32370;41.864;-88.124;2023-04-24T12:47:56;99486.54;;;3.05;63.71
46642;BME280;32370;41.864;-88.124;2023-04-24T12:50:25;99488.38;;;3.69;62.69
46642;BME280;32370;41.864;-88.124;2023-04-24T12:52:52;99492.49;;;3.90;61.53
46642;BME280;32370;41.864;-88.124;2023-04-24T12:55:20;99487.89;;;4.47;60.62
46642;BME280;32370;41.864;-88.124;2023-04-24T12:57:48;99494.67;;;4.11;58.56